Hauptseite
METAR-TAF:

METAR-TAF

Flughäfen :

Flughafen Lüttich

Lüttich, Belgien

Breite: 50-39N, Länge: 005-27E, Höhe: 186 m

Beobachtung

Neuester Wetterbericht von vor 22 Minuten, um 00:50 UTC
Wind 5 kt aus Ost
Temperatur 14°C
Luftfeuchtigkeit 44%
Luftdruck 1001 hPa
Sichtweite 10 km oder mehr
keine Wolken unter 1500 m und keine Kumulonimbus oder Gewitterwolken

METAR: EBLG 230050Z 08005KT CAVOK 14/02 Q1001 NOSIG

Zeit: 03:12 (01:12 UTC)

Prognose

Neuester Wetterbericht von vor 2 Stunden und 2 Minuten, um 23:10 UTC
Gültige Prognose vom 23 um 00 UTC bis 24 um 06 UTC
Wind 6 kt aus Ost/Nordost
Sichtweite 10 km oder mehr
keine Wolken unter 1500 m und keine Kumulonimbus oder Gewitterwolken

TAF: EBLG 222310Z 2300/2406 07006KT CAVOK

Wetterbeobachtungen und Prognosen von mehr als 4000 Flughäfen (METAR und TAF Bericht).

Die verfügbaren Stationen werden durch gelbe und rote Markierungen auf der Karte dargestellt.

Führen Sie die Maus auf sie, um den Namen der Station zu sehen.

Darauf klicken, um die Beobachtung von Wetterbeobachtungen und Prognosen zu sehen.

Um die Karte zu ändern : klicken Sie auf den grünen Tasten mit einem schwarzen Kreuz Zum Vergrößern, auf den grünen Button mit einem Gedankenstrich zu verkleinern, oder auf die grünen Pfeile für benachbarte Karten.


METAR-TAF: